Time;durP1;ratioP1;P1;durP2;ratioP2;P2;SDS_P1;SDS_P2;PMS_P1;PMS_P2;Temp;Humidity;BMP_temperature;BMP_pressure;BME280_temperature;BME280_humidity;BME280_pressure;Samples;Min_cycle;Max_cycle;Signal;HPM_P1;HPM_P2
2021/08/11 00:00:28;;;;;;;5.80;2.97;;;14.40;99.90;;;;;;5068767;28;20033;-80
2021/08/11 00:02:56;;;;;;;6.03;3.08;;;14.40;99.90;;;;;;5049152;28;20048;-80
2021/08/11 00:05:22;;;;;;;4.40;2.97;;;14.40;99.90;;;;;;5054365;28;20047;-81
2021/08/11 00:07:49;;;;;;;3.88;2.63;;;14.30;99.90;;;;;;5034180;28;20472;-81
2021/08/11 00:10:15;;;;;;;5.20;3.17;;;14.30;99.90;;;;;;5037980;28;20388;-81
2021/08/11 00:12:42;;;;;;;6.68;3.08;;;14.30;99.90;;;;;;5052935;28;20040;-80
2021/08/11 00:15:10;;;;;;;4.78;3.22;;;14.20;99.90;;;;;;5073117;28;20048;-80
2021/08/11 00:17:37;;;;;;;5.57;3.22;;;14.20;99.90;;;;;;5039686;28;20051;-80
2021/08/11 00:20:05;;;;;;;5.15;2.95;;;14.20;99.90;;;;;;5050549;28;20956;-80
2021/08/11 00:22:32;;;;;;;5.20;2.78;;;14.20;99.90;;;;;;5071479;28;20394;-80
2021/08/11 00:24:58;;;;;;;7.68;3.50;;;14.20;99.90;;;;;;5053927;28;20047;-80
2021/08/11 00:27:25;;;;;;;4.60;3.05;;;14.20;99.90;;;;;;5054057;28;20048;-81
2021/08/11 00:29:51;;;;;;;5.80;3.90;;;14.20;99.90;;;;;;5090648;28;20450;-80
2021/08/11 00:32:18;;;;;;;5.00;4.00;;;14.20;99.90;;;;;;5071526;28;20483;-80
2021/08/11 00:34:47;;;;;;;5.90;3.97;;;14.10;99.90;;;;;;5041896;28;20049;-80
2021/08/11 00:37:13;;;;;;;5.28;3.83;;;14.10;99.90;;;;;;5017699;28;20045;-80
2021/08/11 00:39:45;;;;;;;5.97;3.78;;;14.10;99.90;;;;;;5068284;28;20060;-81
2021/08/11 00:42:12;;;;;;;5.07;3.83;;;14.10;99.90;;;;;;5023420;28;20040;-81
2021/08/11 00:44:39;;;;;;;5.80;4.50;;;14.00;99.90;;;;;;5018778;28;20048;-80
2021/08/11 00:47:07;;;;;;;7.60;4.43;;;14.00;99.90;;;;;;5039501;28;20421;-80
2021/08/11 00:49:35;;;;;;;7.20;4.75;;;14.00;99.90;;;;;;5018126;28;20053;-80
2021/08/11 00:52:06;;;;;;;7.57;5.77;;;14.00;99.90;;;;;;5048687;28;20047;-80
2021/08/11 00:54:35;;;;;;;8.55;5.40;;;14.00;99.90;;;;;;5023447;28;20051;-80
2021/08/11 00:57:04;;;;;;;7.90;5.38;;;14.00;99.90;;;;;;5037576;28;20048;-80
2021/08/11 00:59:34;;;;;;;7.30;4.63;;;13.90;99.90;;;;;;5066834;28;20052;-80
2021/08/11 01:02:03;;;;;;;11.25;5.82;;;13.90;99.90;;;;;;5068713;28;20391;-81
2021/08/11 01:04:31;;;;;;;7.13;5.85;;;13.90;99.90;;;;;;5035653;28;20044;-80
2021/08/11 01:07:01;;;;;;;6.97;5.18;;;13.90;99.90;;;;;;5059910;28;20060;-81
2021/08/11 01:09:31;;;;;;;7.35;5.22;;;13.90;99.90;;;;;;5068388;28;20044;-80
2021/08/11 01:11:58;;;;;;;9.88;5.65;;;13.80;99.90;;;;;;5056908;28;20040;-80
2021/08/11 01:14:29;;;;;;;6.70;4.63;;;13.80;99.90;;;;;;5045881;28;20064;-80
2021/08/11 01:17:01;;;;;;;7.07;6.10;;;13.80;99.90;;;;;;5067585;28;20040;-80
2021/08/11 01:19:28;;;;;;;9.73;8.02;;;13.70;99.90;;;;;;5033626;28;20056;-80
2021/08/11 01:22:21;;;;;;;8.88;7.85;;;13.70;99.90;;;;;;5030710;28;20051;-79
2021/08/11 01:25:16;;;;;;;9.23;7.68;;;13.70;99.90;;;;;;5046253;28;20032;-80
2021/08/11 01:28:15;;;;;;;9.48;7.25;;;13.70;99.90;;;;;;5047161;28;20028;-79
2021/08/11 01:30:49;;;;;;;9.00;6.95;;;13.60;99.90;;;;;;5053239;28;20041;-80
2021/08/11 01:33:51;;;;;;;7.03;6.30;;;13.60;99.90;;;;;;5051184;28;20051;-80
2021/08/11 01:36:25;;;;;;;9.45;6.35;;;13.60;99.90;;;;;;5048957;28;20454;-80
2021/08/11 01:39:19;;;;;;;7.47;6.75;;;13.60;99.90;;;;;;5032946;28;20059;-80
2021/08/11 01:41:52;;;;;;;11.02;7.30;;;13.60;99.90;;;;;;5032417;28;20036;-80
2021/08/11 01:44:23;;;;;;;7.85;6.53;;;13.60;99.90;;;;;;5066033;28;20033;-80
2021/08/11 01:46:53;;;;;;;7.60;6.60;;;13.50;99.90;;;;;;5032375;28;20045;-80
2021/08/11 01:49:23;;;;;;;11.38;7.60;;;13.50;99.90;;;;;;5008419;28;20049;-80
2021/08/11 01:51:49;;;;;;;9.77;7.38;;;13.50;99.90;;;;;;4980042;28;20092;-80
2021/08/11 01:54:20;;;;;;;9.13;7.45;;;13.50;99.90;;;;;;4982653;28;20057;-80
2021/08/11 01:56:49;;;;;;;10.48;8.00;;;13.40;99.90;;;;;;4966514;28;20054;-80
2021/08/11 01:59:17;;;;;;;14.07;8.80;;;13.40;99.90;;;;;;4976544;28;20042;-79
2021/08/11 02:01:44;;;;;;;8.85;7.90;;;13.50;99.90;;;;;;4975059;28;20049;-80
2021/08/11 02:04:13;;;;;;;10.55;6.60;;;13.40;99.90;;;;;;4978305;28;20050;-80
2021/08/11 02:06:42;;;;;;;8.85;6.95;;;13.40;99.90;;;;;;5008630;28;20045;-80
2021/08/11 02:09:11;;;;;;;7.70;6.88;;;13.40;99.90;;;;;;5014594;28;20045;-80
2021/08/11 02:11:41;;;;;;;10.13;8.27;;;13.40;99.90;;;;;;4978116;28;20049;-79
2021/08/11 02:14:09;;;;;;;12.55;9.02;;;13.30;99.90;;;;;;4987144;28;20147;-82
2021/08/11 02:16:41;;;;;;;12.02;9.52;;;13.30;99.90;;;;;;5010505;28;20049;-79
2021/08/11 02:19:09;;;;;;;10.55;8.88;;;13.30;99.90;;;;;;4998450;28;20050;-79
2021/08/11 02:21:37;;;;;;;11.25;8.65;;;13.40;99.90;;;;;;5015459;28;20063;-80
2021/08/11 02:24:05;;;;;;;10.13;8.00;;;13.30;99.90;;;;;;5066354;28;20047;-80
2021/08/11 02:26:37;;;;;;;9.57;8.68;;;13.30;99.90;;;;;;5043494;28;20095;-79
2021/08/11 02:29:26;;;;;;;10.90;8.65;;;13.30;99.90;;;;;;5031912;28;20071;-80
2021/08/11 02:32:19;;;;;;;11.65;9.55;;;13.30;99.90;;;;;;5036572;28;20051;-79
2021/08/11 02:35:07;;;;;;;11.63;10.25;;;13.30;99.90;;;;;;5028739;28;20048;-79
2021/08/11 02:37:46;;;;;;;9.95;8.48;;;13.30;99.90;;;;;;5047958;28;20049;-79
2021/08/11 02:40:21;;;;;;;11.70;9.00;;;13.30;99.90;;;;;;5038133;28;20036;-79
2021/08/11 02:43:12;;;;;;;11.15;9.65;;;13.20;99.90;;;;;;5033348;28;20041;-80
2021/08/11 02:45:40;;;;;;;12.95;8.85;;;13.20;99.90;;;;;;5044457;28;20040;-80
2021/08/11 02:48:10;;;;;;;11.63;9.32;;;13.20;99.90;;;;;;5048141;28;20395;-80
2021/08/11 02:50:39;;;;;;;11.50;9.02;;;13.20;99.90;;;;;;5044029;28;20033;-80
2021/08/11 02:53:06;;;;;;;12.52;11.20;;;13.20;99.90;;;;;;5031715;28;20883;-80
2021/08/11 02:55:37;;;;;;;12.07;9.40;;;13.20;99.90;;;;;;5050700;28;20040;-79
2021/08/11 02:58:05;;;;;;;11.95;9.77;;;13.20;99.90;;;;;;5049439;28;20044;-80
2021/08/11 03:00:32;;;;;;;11.55;10.35;;;13.20;99.90;;;;;;5065384;28;20029;-80
2021/08/11 03:03:01;;;;;;;10.73;9.30;;;13.20;99.90;;;;;;5040099;28;20047;-80
2021/08/11 03:05:28;;;;;;;11.60;9.25;;;13.20;99.90;;;;;;5046304;28;20041;-80
2021/08/11 03:07:55;;;;;;;11.13;8.88;;;13.10;99.90;;;;;;5033833;28;20063;-80
2021/08/11 03:10:22;;;;;;;11.18;9.35;;;13.20;99.90;;;;;;5020804;28;20045;-79
2021/08/11 03:12:49;;;;;;;11.48;9.90;;;13.20;99.90;;;;;;5037863;28;20043;-80
2021/08/11 03:15:16;;;;;;;11.27;9.02;;;13.10;99.90;;;;;;5068674;28;20059;-78
2021/08/11 03:17:46;;;;;;;12.90;10.00;;;13.10;99.90;;;;;;5018212;28;20040;-78
2021/08/11 03:20:13;;;;;;;12.30;10.55;;;13.10;99.90;;;;;;5052242;28;20029;-78
2021/08/11 03:22:40;;;;;;;14.55;9.77;;;13.10;99.90;;;;;;5068932;28;20040;-78
2021/08/11 03:25:07;;;;;;;13.45;11.93;;;13.20;99.90;;;;;;5049184;28;20048;-78
2021/08/11 03:27:49;;;;;;;13.20;10.45;;;13.20;99.90;;;;;;5085199;28;20495;-78
2021/08/11 03:30:19;;;;;;;10.52;9.43;;;13.20;99.90;;;;;;5035195;28;20044;-78
2021/08/11 03:32:45;;;;;;;10.65;9.27;;;13.20;99.90;;;;;;5053400;28;20040;-78
2021/08/11 03:35:13;;;;;;;11.27;9.77;;;13.20;99.90;;;;;;5053861;28;20621;-78
2021/08/11 03:37:40;;;;;;;10.23;9.23;;;13.20;99.90;;;;;;5072622;28;20043;-79
2021/08/11 03:40:08;;;;;;;10.13;9.13;;;13.10;99.90;;;;;;5072268;28;20032;-78
2021/08/11 03:42:36;;;;;;;12.48;9.90;;;13.20;99.90;;;;;;5052352;28;20054;-78
2021/08/11 03:45:05;;;;;;;12.73;10.30;;;13.20;99.90;;;;;;5053053;28;20502;-78
2021/08/11 03:47:32;;;;;;;12.65;11.15;;;13.20;99.90;;;;;;5086852;28;20038;-78
2021/08/11 03:49:59;;;;;;;11.63;10.30;;;13.20;99.90;;;;;;5043840;28;20474;-78
2021/08/11 03:52:25;;;;;;;13.80;10.65;;;13.20;99.90;;;;;;5053162;28;20681;-78
2021/08/11 03:54:51;;;;;;;12.38;10.63;;;13.20;99.90;;;;;;5067601;28;20036;-78
2021/08/11 03:57:18;;;;;;;13.05;10.82;;;13.20;99.90;;;;;;5052829;28;20507;-78
2021/08/11 03:59:44;;;;;;;11.57;9.13;;;13.20;99.90;;;;;;5055044;28;20040;-78
2021/08/11 04:02:11;;;;;;;10.98;9.73;;;13.20;99.90;;;;;;5052489;28;20043;-78
2021/08/11 04:04:37;;;;;;;10.75;9.52;;;13.10;99.90;;;;;;5086158;28;20044;-79
2021/08/11 04:07:04;;;;;;;11.45;9.68;;;13.10;99.90;;;;;;5073413;28;20044;-78
2021/08/11 04:09:30;;;;;;;11.57;9.73;;;13.10;99.90;;;;;;5086179;28;20402;-78
2021/08/11 04:11:56;;;;;;;10.63;9.23;;;13.10;99.90;;;;;;5051710;28;20055;-78
2021/08/11 04:14:23;;;;;;;11.32;9.80;;;13.10;99.90;;;;;;5086296;28;20052;-79
2021/08/11 04:16:49;;;;;;;12.88;10.80;;;13.00;99.90;;;;;;5085661;28;20383;-79
2021/08/11 04:19:15;;;;;;;11.88;10.10;;;13.10;99.90;;;;;;5052351;28;20059;-79
2021/08/11 04:21:42;;;;;;;11.45;10.13;;;13.00;99.90;;;;;;5086244;28;20039;-79
2021/08/11 04:24:08;;;;;;;12.23;9.55;;;13.00;99.90;;;;;;5091225;28;20044;-79
2021/08/11 04:26:34;;;;;;;13.27;9.93;;;13.10;99.90;;;;;;5052244;28;20399;-78
2021/08/11 04:29:01;;;;;;;11.98;10.38;;;13.10;99.90;;;;;;5086054;28;20809;-79
2021/08/11 04:31:27;;;;;;;10.77;9.68;;;13.10;99.90;;;;;;5068265;28;20056;-79
2021/08/11 04:33:53;;;;;;;11.38;9.35;;;13.10;99.90;;;;;;5088945;28;20371;-80
2021/08/11 04:36:19;;;;;;;11.95;10.10;;;13.10;99.90;;;;;;5070630;28;20040;-79
2021/08/11 04:38:47;;;;;;;13.02;11.73;;;13.20;99.90;;;;;;5051540;28;20414;-79
2021/08/11 04:41:36;;;;;;;11.75;10.48;;;13.20;99.90;;;;;;5053613;28;20036;-79
2021/08/11 04:44:04;;;;;;;12.05;10.82;;;13.30;99.90;;;;;;5086768;28;20035;-79
2021/08/11 04:46:31;;;;;;;13.02;11.70;;;13.40;99.90;;;;;;5084717;28;20055;-80
2021/08/11 04:48:57;;;;;;;13.63;11.45;;;13.40;99.90;;;;;;5068630;28;20522;-79
2021/08/11 04:51:23;;;;;;;15.93;11.73;;;13.50;99.90;;;;;;5039660;28;20051;-79
2021/08/11 04:53:49;;;;;;;16.92;12.50;;;13.60;99.90;;;;;;5048681;28;20044;-78
2021/08/11 04:56:18;;;;;;;21.88;14.18;;;13.60;99.90;;;;;;5068540;28;20044;-79
2021/08/11 04:58:44;;;;;;;23.75;14.95;;;13.70;99.90;;;;;;5052920;28;20066;-79
2021/08/11 05:01:11;;;;;;;19.02;14.57;;;13.70;99.90;;;;;;5067564;28;20036;-79
2021/08/11 05:03:37;;;;;;;22.70;15.73;;;13.70;99.90;;;;;;5068316;28;20047;-79
2021/08/11 05:06:04;;;;;;;19.90;14.40;;;13.70;99.90;;;;;;5069638;28;21411;-79
2021/08/11 05:08:30;;;;;;;22.42;15.68;;;13.80;99.90;;;;;;5051219;28;20471;-79
2021/08/11 05:10:57;;;;;;;23.10;16.35;;;13.90;99.90;;;;;;5066779;28;20059;-79
2021/08/11 05:13:23;;;;;;;27.70;15.48;;;13.90;99.90;;;;;;5086738;28;20048;-80
2021/08/11 05:15:50;;;;;;;24.63;15.65;;;14.00;99.90;;;;;;5072188;28;20044;-79
2021/08/11 05:18:16;;;;;;;34.83;15.27;;;14.10;99.90;;;;;;5088214;28;20062;-79
2021/08/11 05:20:42;;;;;;;30.95;14.73;;;14.20;99.90;;;;;;5088103;28;20048;-79
2021/08/11 05:23:09;;;;;;;44.35;15.50;;;14.30;99.90;;;;;;5060832;28;20043;-79
2021/08/11 05:25:35;;;;;;;58.50;14.70;;;14.30;99.90;;;;;;5073772;27;20035;-80
2021/08/11 05:28:02;;;;;;;55.13;13.32;;;14.50;99.90;;;;;;5077675;28;20517;-80
2021/08/11 05:30:28;;;;;;;53.45;13.82;;;14.50;99.90;;;;;;5054952;28;20050;-80
2021/08/11 05:32:55;;;;;;;48.92;13.00;;;14.60;99.90;;;;;;5075221;28;20529;-80
2021/08/11 05:35:22;;;;;;;88.20;14.20;;;14.70;99.90;;;;;;5087581;28;20035;-80
2021/08/11 05:37:48;;;;;;;109.40;13.35;;;14.80;99.90;;;;;;5076337;28;20051;-80
2021/08/11 05:40:18;;;;;;;123.25;13.55;;;14.90;99.90;;;;;;5055456;28;20730;-80
2021/08/11 05:42:46;;;;;;;93.68;11.30;;;15.00;99.90;;;;;;5088519;28;20043;-80
2021/08/11 05:45:12;;;;;;;51.97;12.38;;;15.10;99.90;;;;;;5090149;28;20038;-80
2021/08/11 05:47:39;;;;;;;55.00;12.35;;;15.10;99.90;;;;;;5088758;28;20048;-80
2021/08/11 05:50:07;;;;;;;76.93;14.15;;;15.20;99.90;;;;;;5090900;28;20054;-80
2021/08/11 05:52:33;;;;;;;44.78;11.75;;;15.30;99.90;;;;;;5082063;28;20513;-80
2021/08/11 05:55:00;;;;;;;45.97;13.27;;;15.30;99.90;;;;;;5089166;28;20039;-80
2021/08/11 05:57:26;;;;;;;66.03;12.93;;;15.50;99.90;;;;;;5088945;28;20048;-80
2021/08/11 05:59:52;;;;;;;90.20;13.15;;;15.50;99.90;;;;;;5091164;28;20040;-80
2021/08/11 06:02:20;;;;;;;27.85;12.80;;;15.50;99.90;;;;;;5054052;28;20048;-80
2021/08/11 06:05:01;;;;;;;19.13;14.43;;;15.60;99.90;;;;;;5057672;28;20043;-80
2021/08/11 06:07:27;;;;;;;39.45;13.65;;;15.60;99.90;;;;;;5073988;27;20604;-80
2021/08/11 06:09:54;;;;;;;37.88;14.15;;;15.70;99.90;;;;;;5078358;28;20039;-80
2021/08/11 06:12:20;;;;;;;31.00;15.05;;;15.80;99.90;;;;;;5077722;28;20046;-81
2021/08/11 06:14:46;;;;;;;20.95;14.60;;;15.90;99.90;;;;;;5070161;28;20061;-80
2021/08/11 06:17:13;;;;;;;23.50;13.82;;;16.00;99.90;;;;;;5075840;28;20043;-79
2021/08/11 06:19:39;;;;;;;24.17;15.68;;;16.00;99.90;;;;;;5078556;28;20035;-81
2021/08/11 06:22:06;;;;;;;23.38;13.93;;;16.10;99.90;;;;;;5063900;27;20062;-81
2021/08/11 06:24:32;;;;;;;19.63;14.85;;;16.10;99.90;;;;;;5066321;28;20486;-81
2021/08/11 06:26:58;;;;;;;18.98;14.98;;;16.20;99.90;;;;;;5057594;28;20062;-81
2021/08/11 06:29:25;;;;;;;21.67;17.95;;;16.30;99.90;;;;;;5087633;28;20154;-80
2021/08/11 06:31:51;;;;;;;19.52;15.75;;;16.40;99.90;;;;;;5057301;27;20043;-80
2021/08/11 06:34:18;;;;;;;21.45;16.15;;;16.60;99.90;;;;;;5080413;28;20066;-79
2021/08/11 06:36:44;;;;;;;22.17;15.73;;;16.70;99.90;;;;;;5074274;28;20048;-80
2021/08/11 06:39:11;;;;;;;18.10;14.10;;;16.80;99.90;;;;;;5069956;28;20031;-80
2021/08/11 06:41:37;;;;;;;17.73;14.93;;;17.10;99.90;;;;;;5071006;28;20051;-80
2021/08/11 06:44:09;;;;;;;17.42;15.55;;;17.30;99.90;;;;;;5047269;27;20048;-80
2021/08/11 06:46:36;;;;;;;16.13;14.40;;;17.60;99.90;;;;;;5101085;27;20036;-80
2021/08/11 06:49:02;;;;;;;28.13;23.55;;;18.00;99.90;;;;;;5060706;27;20118;-80
2021/08/11 06:51:29;;;;;;;20.00;17.63;;;18.30;99.90;;;;;;5078586;27;20054;-80
2021/08/11 06:53:55;;;;;;;18.00;15.85;;;18.60;99.90;;;;;;5060677;28;20051;-80
2021/08/11 06:56:22;;;;;;;19.20;15.30;;;18.80;99.90;;;;;;5076396;27;20023;-80
2021/08/11 06:58:48;;;;;;;22.65;18.08;;;19.00;99.90;;;;;;5091776;28;20504;-80
2021/08/11 07:01:14;;;;;;;15.48;13.23;;;19.10;99.90;;;;;;5078865;28;20036;-80
2021/08/11 07:03:41;;;;;;;15.02;12.98;;;19.30;99.90;;;;;;5072983;28;20403;-79
2021/08/11 07:06:07;;;;;;;12.80;11.45;;;19.40;99.90;;;;;;5058617;28;20032;-79
2021/08/11 07:08:33;;;;;;;13.30;11.70;;;19.50;99.90;;;;;;5060268;28;20070;-78
2021/08/11 07:11:00;;;;;;;10.38;9.38;;;19.60;99.90;;;;;;5055140;28;20047;-79
2021/08/11 07:13:27;;;;;;;11.30;10.02;;;19.60;99.90;;;;;;5053698;28;20039;-79
2021/08/11 07:15:54;;;;;;;11.38;9.32;;;19.60;99.90;;;;;;5068724;28;20100;-78
2021/08/11 07:18:21;;;;;;;10.25;9.05;;;19.80;99.90;;;;;;5087377;28;20048;-78
2021/08/11 07:20:47;;;;;;;8.48;7.22;;;19.90;99.90;;;;;;5054141;28;20058;-78
2021/08/11 07:23:14;;;;;;;8.90;7.18;;;20.10;99.90;;;;;;5070899;28;20052;-79
2021/08/11 07:25:41;;;;;;;9.57;8.20;;;20.30;99.90;;;;;;5052567;28;20032;-78
2021/08/11 07:28:08;;;;;;;8.82;7.53;;;20.40;99.90;;;;;;5069463;28;20058;-78
2021/08/11 07:30:35;;;;;;;8.65;7.57;;;20.50;99.90;;;;;;5067778;28;20498;-78
2021/08/11 07:33:03;;;;;;;8.90;7.97;;;20.60;99.90;;;;;;5054540;28;20061;-78
2021/08/11 07:35:30;;;;;;;9.65;7.43;;;20.70;99.90;;;;;;5055772;28;20063;-78
2021/08/11 07:37:56;;;;;;;8.02;7.22;;;20.80;99.90;;;;;;5069413;28;20047;-80
2021/08/11 07:40:25;;;;;;;10.48;6.70;;;20.90;99.90;;;;;;5071524;28;20043;-79
2021/08/11 07:42:52;;;;;;;5.82;5.22;;;20.90;99.90;;;;;;5072597;28;20040;-79
2021/08/11 07:45:19;;;;;;;8.73;7.40;;;21.00;99.90;;;;;;5057556;28;20040;-78
2021/08/11 07:47:48;;;;;;;7.05;6.35;;;21.00;99.90;;;;;;5069162;28;20832;-79
2021/08/11 07:50:16;;;;;;;9.18;7.85;;;21.10;99.90;;;;;;5070325;28;20035;-78
2021/08/11 07:52:47;;;;;;;10.15;7.30;;;21.20;99.90;;;;;;5051780;28;20509;-78
2021/08/11 07:55:15;;;;;;;9.55;5.97;;;21.20;99.90;;;;;;5091083;28;20381;-78
2021/08/11 07:57:42;;;;;;;6.85;5.93;;;21.20;99.90;;;;;;5056032;28;20405;-78
2021/08/11 08:00:11;;;;;;;8.55;6.97;;;21.30;99.90;;;;;;5071054;28;20039;-79
2021/08/11 08:02:40;;;;;;;6.28;4.95;;;21.40;99.90;;;;;;5087420;28;20715;-78
2021/08/11 08:05:07;;;;;;;7.95;5.90;;;21.50;99.90;;;;;;5067973;28;20036;-79
2021/08/11 08:07:34;;;;;;;7.13;5.82;;;21.60;99.90;;;;;;5077404;28;20394;-78
2021/08/11 08:10:02;;;;;;;8.10;5.13;;;21.70;99.90;;;;;;5040779;28;20063;-79
2021/08/11 08:12:29;;;;;;;8.77;6.68;;;21.90;99.90;;;;;;5054964;28;20047;-79
2021/08/11 08:14:56;;;;;;;9.05;6.57;;;22.10;99.90;;;;;;5052234;28;20047;-79
2021/08/11 08:17:22;;;;;;;7.05;5.32;;;22.30;99.90;;;;;;5056670;28;20051;-79
2021/08/11 08:19:49;;;;;;;10.02;6.43;;;22.50;99.90;;;;;;5073888;28;20047;-79
2021/08/11 08:22:16;;;;;;;6.75;5.78;;;22.60;99.90;;;;;;5089043;28;20083;-79
2021/08/11 08:24:46;;;;;;;9.73;7.25;;;22.80;99.70;;;;;;5074577;28;20058;-79
2021/08/11 08:27:12;;;;;;;8.77;6.53;;;22.80;99.10;;;;;;5052798;28;20048;-80
2021/08/11 08:29:39;;;;;;;12.43;9.52;;;22.80;99.20;;;;;;5069333;28;20032;-79
2021/08/11 08:32:06;;;;;;;10.43;8.35;;;22.90;98.90;;;;;;5088545;28;20039;-78
2021/08/11 08:34:32;;;;;;;9.70;6.88;;;23.00;98.60;;;;;;5055678;28;20040;-78
2021/08/11 08:36:59;;;;;;;7.40;6.57;;;23.00;98.60;;;;;;5074625;28;20047;-80
2021/08/11 08:39:25;;;;;;;8.18;6.85;;;23.10;98.60;;;;;;5063077;28;20039;-80
2021/08/11 08:41:53;;;;;;;8.05;7.18;;;23.30;98.50;;;;;;5049957;28;20044;-79
2021/08/11 08:44:21;;;;;;;11.52;8.77;;;23.40;98.30;;;;;;5050351;28;20036;-80
2021/08/11 08:46:50;;;;;;;10.52;6.88;;;23.60;97.60;;;;;;5089286;28;20035;-79
2021/08/11 08:49:17;;;;;;;10.32;7.25;;;23.80;97.30;;;;;;5072196;28;20048;-79
2021/08/11 08:51:48;;;;;;;10.82;8.13;;;24.00;96.90;;;;;;5086354;28;20383;-79
2021/08/11 08:54:22;;;;;;;10.32;8.65;;;24.10;96.50;;;;;;5086827;28;20032;-79
2021/08/11 08:56:49;;;;;;;7.82;7.05;;;24.10;96.40;;;;;;5071324;28;20050;-79
2021/08/11 08:59:15;;;;;;;10.93;8.23;;;24.20;96.30;;;;;;5072559;28;20063;-80
2021/08/11 09:01:42;;;;;;;9.63;7.78;;;24.30;96.10;;;;;;5067075;28;20052;-79
2021/08/11 09:04:09;;;;;;;7.38;6.47;;;24.30;95.70;;;;;;5053094;28;20051;-80
2021/08/11 09:06:36;;;;;;;6.35;5.03;;;24.20;95.80;;;;;;5054607;28;20502;-79
2021/08/11 09:09:08;;;;;;;8.95;7.38;;;24.20;95.80;;;;;;5037262;28;20052;-80
2021/08/11 09:11:36;;;;;;;6.78;5.13;;;24.10;95.40;;;;;;5049094;28;20075;-80
2021/08/11 09:14:17;;;;;;;6.88;5.20;;;24.00;95.90;;;;;;5066203;28;20064;-79
2021/08/11 09:16:52;;;;;;;6.72;5.65;;;24.00;95.60;;;;;;5032154;28;20040;-79
2021/08/11 09:19:20;;;;;;;10.25;7.95;;;24.00;95.60;;;;;;5064987;28;20032;-79
2021/08/11 09:22:16;;;;;;;9.20;7.97;;;23.90;95.40;;;;;;5049312;28;20491;-79
2021/08/11 09:24:43;;;;;;;7.10;6.20;;;23.70;95.20;;;;;;5071246;28;20381;-79
2021/08/11 09:27:19;;;;;;;7.47;5.53;;;23.70;95.50;;;;;;5032198;28;20040;-79
2021/08/11 09:30:02;;;;;;;9.50;8.02;;;23.90;95.60;;;;;;5065937;28;20054;-79
2021/08/11 09:32:29;;;;;;;10.38;7.57;;;24.10;95.00;;;;;;5047019;28;20043;-79
2021/08/11 09:34:56;;;;;;;6.90;5.72;;;24.10;95.00;;;;;;5048380;28;20041;-79
2021/08/11 09:37:42;;;;;;;8.60;6.97;;;24.20;95.00;;;;;;5016412;28;20044;-79
2021/08/11 09:40:12;;;;;;;6.97;6.15;;;24.30;94.90;;;;;;5045808;28;20048;-79
2021/08/11 09:42:39;;;;;;;7.55;6.15;;;24.40;94.70;;;;;;5030082;28;20040;-79
2021/08/11 09:45:10;;;;;;;7.43;6.72;;;24.60;94.60;;;;;;5049407;28;20048;-79
2021/08/11 09:47:37;;;;;;;7.15;5.90;;;24.70;94.20;;;;;;5035135;28;20111;-79
2021/08/11 09:50:05;;;;;;;9.65;6.38;;;25.00;94.20;;;;;;5048448;28;20388;-80
2021/08/11 09:52:53;;;;;;;7.43;5.80;;;25.20;93.70;;;;;;5064402;28;20051;-79
2021/08/11 09:55:20;;;;;;;5.78;5.15;;;25.40;93.40;;;;;;5063069;28;20056;-80
2021/08/11 09:57:47;;;;;;;8.68;6.90;;;25.70;93.20;;;;;;5069657;28;20057;-79
2021/08/11 10:00:14;;;;;;;7.35;5.28;;;25.80;92.20;;;;;;5029098;28;20045;-80
2021/08/11 10:02:45;;;;;;;7.20;4.82;;;26.00;92.00;;;;;;5030898;28;20041;-80
2021/08/11 10:05:44;;;;;;;7.60;6.15;;;26.10;91.80;;;;;;5033738;28;20843;-80
2021/08/11 10:08:10;;;;;;;8.02;5.93;;;26.30;91.60;;;;;;4991086;28;20566;-80
2021/08/11 10:10:47;;;;;;;5.22;4.55;;;26.40;90.80;;;;;;5045265;28;20036;-80
2021/08/11 10:13:20;;;;;;;5.22;4.32;;;26.60;90.80;;;;;;5048531;28;20055;-80
2021/08/11 10:15:47;;;;;;;8.48;5.70;;;26.80;90.40;;;;;;5081852;28;20043;-80
2021/08/11 10:18:17;;;;;;;4.60;4.13;;;27.10;90.00;;;;;;5068013;28;20490;-80
2021/08/11 10:20:46;;;;;;;4.30;2.75;;;27.30;89.30;;;;;;5086954;28;20051;-80
2021/08/11 10:23:17;;;;;;;5.72;3.05;;;27.50;89.50;;;;;;5068891;28;20485;-80
2021/08/11 10:25:44;;;;;;;4.10;3.38;;;27.70;87.50;;;;;;5067580;28;20040;-80
2021/08/11 10:28:11;;;;;;;4.65;3.30;;;27.80;86.40;;;;;;5067747;28;20402;-80
2021/08/11 10:30:39;;;;;;;4.00;3.20;;;27.70;86.80;;;;;;5030527;28;20055;-80
2021/08/11 10:33:09;;;;;;;4.50;3.20;;;27.60;86.60;;;;;;5072248;28;20065;-79
2021/08/11 10:35:38;;;;;;;4.55;3.53;;;27.60;86.00;;;;;;5084319;28;20035;-81
2021/08/11 10:38:08;;;;;;;4.70;4.03;;;27.90;86.30;;;;;;5066361;28;20047;-79
2021/08/11 10:40:35;;;;;;;3.33;2.83;;;28.20;84.90;;;;;;5084649;28;20032;-80
2021/08/11 10:43:02;;;;;;;3.85;3.47;;;28.40;83.70;;;;;;5070004;28;20048;-80
2021/08/11 10:45:29;;;;;;;4.57;3.13;;;28.30;82.40;;;;;;5051759;28;20049;-80
2021/08/11 10:47:56;;;;;;;4.90;2.90;;;28.50;82.00;;;;;;5035269;28;20041;-81
2021/08/11 10:50:22;;;;;;;3.03;1.90;;;28.60;82.00;;;;;;5051698;28;20048;-81
2021/08/11 10:53:08;;;;;;;2.95;2.15;;;28.90;81.70;;;;;;5035892;28;20048;-81
2021/08/11 10:55:43;;;;;;;2.80;2.50;;;29.30;80.00;;;;;;5051183;28;20044;-81
2021/08/11 10:58:09;;;;;;;4.38;3.17;;;29.30;79.00;;;;;;5085658;28;20048;-82
2021/08/11 11:00:40;;;;;;;4.45;3.90;;;29.10;78.30;;;;;;5068298;28;20040;-81
2021/08/11 11:03:07;;;;;;;5.47;3.80;;;29.20;77.80;;;;;;5086023;28;20039;-80
2021/08/11 11:05:34;;;;;;;3.28;2.53;;;29.20;76.70;;;;;;5037741;28;20047;-83
2021/08/11 11:08:10;;;;;;;5.65;3.08;;;29.50;77.70;;;;;;5054064;28;20035;-85
2021/08/11 11:10:38;;;;;;;2.95;2.03;;;29.90;75.80;;;;;;5056760;28;20039;-86
2021/08/11 11:13:23;;;;;;;3.58;2.50;;;30.00;74.60;;;;;;5053841;28;20289;-84
2021/08/11 11:15:51;;;;;;;3.33;2.22;;;30.20;74.00;;;;;;5068653;28;20036;-86
2021/08/11 11:18:23;;;;;;;2.92;2.20;;;29.90;72.50;;;;;;5086307;28;20423;-86
2021/08/11 11:21:00;;;;;;;2.40;1.95;;;29.80;73.00;;;;;;5059051;28;20040;-86
2021/08/11 11:23:34;;;;;;;3.78;3.38;;;29.60;71.70;;;;;;5069820;28;20036;-82
2021/08/11 11:26:10;;;;;;;3.22;2.30;;;29.30;71.70;;;;;;5087590;28;20047;-83
2021/08/11 11:29:05;;;;;;;2.50;1.98;;;29.20;72.50;;;;;;5068686;28;20039;-84
2021/08/11 11:31:43;;;;;;;3.30;2.15;;;29.30;72.70;;;;;;5052678;28;20047;-83
2021/08/11 11:34:22;;;;;;;3.15;2.03;;;29.30;72.90;;;;;;5066985;28;20044;-82
2021/08/11 11:36:52;;;;;;;2.28;1.80;;;29.20;72.50;;;;;;5065129;28;20063;-84
2021/08/11 11:39:18;;;;;;;2.60;1.60;;;29.00;72.50;;;;;;5064219;28;20067;-84
2021/08/11 11:42:07;;;;;;;3.35;2.00;;;28.80;72.40;;;;;;5063911;28;20438;-83
2021/08/11 11:44:57;;;;;;;2.75;1.90;;;28.70;72.30;;;;;;5067007;28;20036;-82
2021/08/11 11:47:44;;;;;;;3.15;2.85;;;28.50;72.80;;;;;;5082525;28;20043;-82
2021/08/11 11:50:23;;;;;;;2.47;2.13;;;28.20;71.40;;;;;;5082987;28;20106;-82
2021/08/11 11:52:58;;;;;;;3.17;2.20;;;28.30;71.90;;;;;;5054825;28;20063;-82
2021/08/11 11:55:32;;;;;;;2.42;2.10;;;29.00;71.60;;;;;;5070776;28;20040;-82
2021/08/11 11:58:20;;;;;;;3.38;2.70;;;30.00;70.40;;;;;;5067693;28;20044;-83
2021/08/11 12:01:01;;;;;;;2.78;2.15;;;30.80;68.10;;;;;;5084116;28;20047;-83
2021/08/11 12:03:46;;;;;;;2.45;2.03;;;31.60;66.80;;;;;;5052131;28;20051;-83
2021/08/11 12:06:13;;;;;;;2.60;2.13;;;32.30;65.00;;;;;;5085893;28;20032;-83
2021/08/11 12:08:39;;;;;;;4.57;4.18;;;32.60;63.60;;;;;;5052683;28;20368;-83
2021/08/11 12:11:08;;;;;;;3.78;2.85;;;32.20;63.20;;;;;;5067151;28;20048;-83
2021/08/11 12:13:52;;;;;;;2.72;2.25;;;31.50;62.00;;;;;;5087434;28;20489;-83
2021/08/11 12:16:19;;;;;;;4.38;2.22;;;30.70;63.60;;;;;;5051804;28;20047;-82
2021/08/11 12:18:48;;;;;;;3.60;3.10;;;30.20;65.10;;;;;;5073312;28;20470;-81
2021/08/11 12:21:19;;;;;;;3.13;1.85;;;29.70;64.50;;;;;;5054276;28;20059;-82
2021/08/11 12:23:50;;;;;;;2.42;2.03;;;29.10;65.70;;;;;;5090740;28;20027;-81
2021/08/11 12:26:16;;;;;;;2.80;2.13;;;28.60;66.80;;;;;;5056936;28;20397;-81
2021/08/11 12:28:48;;;;;;;3.05;2.45;;;28.40;68.40;;;;;;5054239;28;20504;-82
2021/08/11 12:31:24;;;;;;;2.88;2.30;;;28.20;67.90;;;;;;5060613;28;20047;-79
2021/08/11 12:33:53;;;;;;;3.58;2.90;;;28.10;67.70;;;;;;5089643;28;20032;-82
2021/08/11 12:36:21;;;;;;;3.30;2.22;;;28.40;67.90;;;;;;5071864;28;20046;-81
2021/08/11 12:39:12;;;;;;;3.00;2.05;;;28.90;66.90;;;;;;5074306;28;20031;-80
2021/08/11 12:41:41;;;;;;;7.85;7.05;;;29.30;66.40;;;;;;5070487;28;20047;-81
2021/08/11 12:44:26;;;;;;;2.88;2.35;;;29.60;66.30;;;;;;5056840;28;20050;-82
2021/08/11 12:47:05;;;;;;;4.85;3.40;;;29.60;65.10;;;;;;5090278;28;20039;-80
2021/08/11 12:49:38;;;;;;;3.22;2.78;;;29.20;65.40;;;;;;5056980;27;20036;-80
2021/08/11 12:52:06;;;;;;;4.40;3.97;;;28.90;66.00;;;;;;5070791;28;20046;-82
2021/08/11 12:54:52;;;;;;;2.63;2.40;;;28.60;66.10;;;;;;5073353;28;20398;-82